createdAt,value
2018-03-14T00:01:43.312Z,3.13
2018-03-14T00:04:10.915Z,2.73
2018-03-14T00:06:38.523Z,2.80
2018-03-14T00:09:06.107Z,3.03
2018-03-14T00:11:33.810Z,2.40
2018-03-14T00:14:01.423Z,2.30
2018-03-14T00:16:29.022Z,2.53
2018-03-14T00:18:56.595Z,2.67
2018-03-14T00:21:24.181Z,2.37
2018-03-14T00:23:51.770Z,2.40
2018-03-14T00:26:20.403Z,2.80
2018-03-14T00:28:48.752Z,2.27
2018-03-14T00:31:16.341Z,2.30
2018-03-14T00:33:44.715Z,2.50
2018-03-14T00:36:12.300Z,2.47
2018-03-14T00:38:39.932Z,2.33
2018-03-14T00:41:07.510Z,2.00
2018-03-14T00:43:35.146Z,2.67
2018-03-14T00:46:02.719Z,2.40
2018-03-14T00:48:30.277Z,2.10
2018-03-14T00:50:57.896Z,2.73
2018-03-14T00:53:25.484Z,2.20
2018-03-14T00:55:53.073Z,2.17
2018-03-14T00:58:21.448Z,3.00
2018-03-14T01:00:49.810Z,2.67
2018-03-14T01:03:17.402Z,2.00
2018-03-14T01:05:45.004Z,2.70
2018-03-14T01:08:16.459Z,3.10
2018-03-14T01:10:44.043Z,2.90
2018-03-14T01:13:11.660Z,3.83
2018-03-14T01:15:39.252Z,3.17
2018-03-14T01:18:06.844Z,3.43
2018-03-14T01:20:35.381Z,2.70
2018-03-14T01:23:03.800Z,3.63
2018-03-14T01:25:32.155Z,3.53
2018-03-14T01:27:59.774Z,3.10
2018-03-14T01:30:27.346Z,3.40
2018-03-14T01:32:54.918Z,2.77
2018-03-14T01:35:22.526Z,3.53
2018-03-14T01:37:50.885Z,3.40
2018-03-14T01:40:19.269Z,2.80
2018-03-14T01:42:47.632Z,2.17
2018-03-14T01:45:15.221Z,2.40
2018-03-14T01:47:43.583Z,1.97
2018-03-14T01:50:11.158Z,2.00
2018-03-14T01:52:39.544Z,2.17
2018-03-14T01:55:07.128Z,1.97
2018-03-14T01:57:34.709Z,2.27
2018-03-14T02:00:02.322Z,1.87
2018-03-14T02:02:30.663Z,2.60
2018-03-14T02:04:58.251Z,2.97
2018-03-14T02:07:26.596Z,2.70
2018-03-14T02:09:54.222Z,2.30
2018-03-14T02:12:21.810Z,1.80
2018-03-14T02:14:49.412Z,3.20
2018-03-14T02:17:16.977Z,2.97
2018-03-14T02:19:44.565Z,2.50
2018-03-14T02:22:12.129Z,2.30
2018-03-14T02:24:39.732Z,2.97
2018-03-14T02:27:07.310Z,2.27
2018-03-14T02:29:35.681Z,2.33
2018-03-14T02:32:04.030Z,2.60
2018-03-14T02:34:31.620Z,2.40
2018-03-14T02:37:01.821Z,2.43
2018-03-14T02:39:29.397Z,2.53
2018-03-14T02:41:57.784Z,2.40
2018-03-14T02:44:26.130Z,2.70
2018-03-14T02:46:53.727Z,2.73
2018-03-14T02:49:21.304Z,2.70
2018-03-14T02:51:49.650Z,3.27
2018-03-14T02:54:17.232Z,2.70
2018-03-14T02:56:45.565Z,3.30
2018-03-14T02:59:13.152Z,2.70
2018-03-14T03:01:40.752Z,2.50
2018-03-14T03:04:08.324Z,3.17
2018-03-14T03:06:35.898Z,3.10
2018-03-14T03:09:03.585Z,3.17
2018-03-14T03:11:31.158Z,3.67
2018-03-14T03:13:58.722Z,4.23
2018-03-14T03:16:26.346Z,3.70
2018-03-14T03:18:54.631Z,4.10
2018-03-14T03:21:22.207Z,4.77
2018-03-14T03:23:49.803Z,4.87
2018-03-14T03:26:18.139Z,4.80
2018-03-14T03:28:45.711Z,4.60
2018-03-14T03:31:13.273Z,5.03
2018-03-14T03:33:40.934Z,5.23
2018-03-14T03:36:09.305Z,5.27
2018-03-14T03:38:36.895Z,5.60
2018-03-14T03:41:05.254Z,6.17
2018-03-14T03:43:32.808Z,6.27
2018-03-14T03:46:00.386Z,6.10
2018-03-14T03:48:28.704Z,6.50
2018-03-14T03:50:56.289Z,7.40
2018-03-14T03:53:23.845Z,7.83
2018-03-14T03:55:51.437Z,7.30
2018-03-14T03:58:19.010Z,9.00
2018-03-14T04:00:47.339Z,6.73
2018-03-14T04:03:14.925Z,8.30
2018-03-14T04:05:42.490Z,7.47
2018-03-14T04:08:10.047Z,7.50
2018-03-14T04:10:37.636Z,7.90
2018-03-14T04:13:05.222Z,7.60
2018-03-14T04:15:32.810Z,7.80
2018-03-14T04:18:01.357Z,8.33
2018-03-14T04:20:28.957Z,8.00
2018-03-14T04:22:56.511Z,8.37
2018-03-14T04:25:24.135Z,8.50
2018-03-14T04:27:51.708Z,9.30
2018-03-14T04:30:20.195Z,8.10
2018-03-14T04:32:47.751Z,8.53
2018-03-14T04:35:15.306Z,8.17
2018-03-14T04:37:42.892Z,10.20
2018-03-14T04:40:10.488Z,9.10
2018-03-14T04:42:38.843Z,9.70
2018-03-14T04:45:06.401Z,9.83
2018-03-14T04:47:33.980Z,9.47
2018-03-14T04:50:02.310Z,10.70
2018-03-14T04:52:29.873Z,9.80
2018-03-14T04:54:57.451Z,9.30
2018-03-14T04:57:25.020Z,10.10
2018-03-14T04:59:52.603Z,8.30
2018-03-14T05:02:20.986Z,8.80
2018-03-14T05:04:48.538Z,8.57
2018-03-14T05:07:16.087Z,9.80
2018-03-14T05:09:50.965Z,9.37
2018-03-14T05:12:18.549Z,8.30
2018-03-14T05:14:46.135Z,10.27
2018-03-14T05:17:13.695Z,8.27
2018-03-14T05:19:41.266Z,9.20
2018-03-14T05:22:09.615Z,11.10
2018-03-14T05:24:37.193Z,15.40
2018-03-14T05:27:04.789Z,10.83
2018-03-14T05:29:32.359Z,8.80
2018-03-14T05:31:59.972Z,8.67
2018-03-14T05:34:27.541Z,10.17
2018-03-14T05:36:55.876Z,14.00
2018-03-14T05:39:23.461Z,10.97
2018-03-14T05:41:51.040Z,10.80
2018-03-14T05:44:19.371Z,11.10
2018-03-14T05:46:47.976Z,11.83
2018-03-14T05:49:15.582Z,11.73
2018-03-14T05:51:43.939Z,12.13
2018-03-14T05:54:12.276Z,11.97
2018-03-14T05:56:39.901Z,11.43
2018-03-14T05:59:07.476Z,11.50
2018-03-14T06:01:35.065Z,9.37
2018-03-14T06:04:02.635Z,11.70
2018-03-14T06:06:30.218Z,11.50
2018-03-14T06:08:58.570Z,12.37
2018-03-14T06:11:26.136Z,11.03
2018-03-14T06:13:53.730Z,11.00
2018-03-14T06:16:22.115Z,9.60
2018-03-14T06:18:49.707Z,9.70
2018-03-14T06:21:17.299Z,9.50
2018-03-14T06:23:44.848Z,9.27
2018-03-14T06:26:12.454Z,10.13
2018-03-14T06:28:40.042Z,8.60
2018-03-14T06:31:07.664Z,10.07
2018-03-14T06:33:35.990Z,8.73
2018-03-14T06:36:03.555Z,9.30
2018-03-14T06:38:31.129Z,9.67
2018-03-14T06:40:59.475Z,7.43
2018-03-14T06:43:27.892Z,7.93
2018-03-14T06:45:55.479Z,9.80
2018-03-14T06:48:23.795Z,7.60
2018-03-14T06:50:51.371Z,6.53
2018-03-14T06:53:18.941Z,7.20
2018-03-14T06:55:46.586Z,8.10
2018-03-14T06:58:25.973Z,9.17
2018-03-14T07:01:06.052Z,8.47
2018-03-14T07:03:45.412Z,7.53
2018-03-14T07:06:17.279Z,8.00
2018-03-14T07:08:44.835Z,8.07
2018-03-14T07:11:12.387Z,8.50
2018-03-14T07:13:39.996Z,7.20
2018-03-14T07:16:07.556Z,7.33
2018-03-14T07:18:35.140Z,7.73
2018-03-14T07:21:02.759Z,8.20
2018-03-14T07:23:30.319Z,9.00
2018-03-14T07:25:57.898Z,10.10
2018-03-14T07:28:26.274Z,8.60
2018-03-14T07:30:53.851Z,7.63
2018-03-14T07:33:22.211Z,7.30
2018-03-14T07:35:49.810Z,9.30
2018-03-14T07:38:17.386Z,8.40
2018-03-14T07:40:44.941Z,8.10
2018-03-14T07:43:12.542Z,7.33
2018-03-14T07:45:40.880Z,7.70
2018-03-14T07:48:08.482Z,8.60
2018-03-14T07:50:36.051Z,8.50
2018-03-14T07:53:03.602Z,7.77
2018-03-14T07:55:31.206Z,7.40
2018-03-14T07:57:59.565Z,8.57
2018-03-14T08:00:27.914Z,8.60
2018-03-14T08:02:55.509Z,7.47
2018-03-14T08:05:23.096Z,9.50
2018-03-14T08:07:50.646Z,13.10
2018-03-14T08:10:18.241Z,8.83
2018-03-14T08:12:45.816Z,10.00
2018-03-14T08:15:13.391Z,8.70
2018-03-14T08:17:41.764Z,8.20
2018-03-14T08:20:09.346Z,8.60
2018-03-14T08:22:36.935Z,8.80
2018-03-14T08:25:04.515Z,9.20
2018-03-14T08:27:32.106Z,7.37
2018-03-14T08:30:00.452Z,10.73
2018-03-14T08:32:28.029Z,13.87
2018-03-14T08:34:55.621Z,9.40
2018-03-14T08:37:23.974Z,9.70
2018-03-14T08:39:51.548Z,13.63
2018-03-14T08:42:19.902Z,8.30
2018-03-14T08:44:47.479Z,7.90
2018-03-14T08:47:15.837Z,7.10
2018-03-14T08:49:44.052Z,7.60
2018-03-14T08:52:12.388Z,6.90
2018-03-14T08:54:39.950Z,9.27
2018-03-14T08:57:08.334Z,7.00
2018-03-14T08:59:35.901Z,6.87
2018-03-14T09:02:03.512Z,7.50
2018-03-14T09:04:31.080Z,5.57
2018-03-14T09:06:58.647Z,6.60
2018-03-14T09:09:26.269Z,6.57
2018-03-14T09:11:53.844Z,7.10
2018-03-14T09:14:21.397Z,5.87
2018-03-14T09:16:48.980Z,6.13
2018-03-14T09:19:16.560Z,5.20
2018-03-14T09:21:44.171Z,5.00
2018-03-14T09:24:11.770Z,8.27
2018-03-14T09:26:39.375Z,7.60
2018-03-14T09:29:07.690Z,4.47
2018-03-14T09:31:35.248Z,4.80
2018-03-14T09:34:03.762Z,5.37
2018-03-14T09:36:31.338Z,6.00
2018-03-14T09:38:58.919Z,5.10
2018-03-14T09:41:27.237Z,5.20
2018-03-14T09:43:54.826Z,5.10
2018-03-14T09:46:22.538Z,4.00
2018-03-14T09:48:50.172Z,9.07
2018-03-14T09:51:18.503Z,8.93
2018-03-14T09:53:46.082Z,4.70
2018-03-14T09:56:13.659Z,6.27
2018-03-14T09:58:41.239Z,4.80
2018-03-14T10:01:08.849Z,5.53
2018-03-14T10:03:36.403Z,5.80
2018-03-14T10:06:04.003Z,5.87
2018-03-14T10:08:32.344Z,6.20
2018-03-14T10:10:59.920Z,5.67
2018-03-14T10:13:27.494Z,5.13
2018-03-14T10:15:55.061Z,6.57
2018-03-14T10:18:22.668Z,4.63
2018-03-14T10:20:50.254Z,5.60
2018-03-14T10:23:17.853Z,6.77
2018-03-14T10:25:46.291Z,5.53
2018-03-14T10:28:13.882Z,5.03
2018-03-14T10:30:41.463Z,6.27
2018-03-14T10:33:09.044Z,6.17
2018-03-14T10:35:36.651Z,5.97
2018-03-14T10:38:04.225Z,6.20
2018-03-14T10:40:31.802Z,5.47
2018-03-14T10:43:01.179Z,5.20
2018-03-14T10:45:28.755Z,5.70
2018-03-14T10:47:57.114Z,5.27
2018-03-14T10:50:24.688Z,4.10
2018-03-14T10:52:52.249Z,4.80
2018-03-14T10:55:20.617Z,4.70
2018-03-14T10:57:48.189Z,4.50
2018-03-14T11:00:22.224Z,4.70
2018-03-14T11:05:56.476Z,4.87
2018-03-14T11:08:24.050Z,5.60
2018-03-14T11:10:51.645Z,6.60
2018-03-14T11:13:19.245Z,5.10
2018-03-14T11:15:50.308Z,6.50
2018-03-14T11:18:17.926Z,4.87
2018-03-14T11:20:46.309Z,5.80
2018-03-14T11:23:14.634Z,6.43
2018-03-14T11:25:42.231Z,5.10
2018-03-14T11:28:09.796Z,4.77
2018-03-14T11:30:38.139Z,5.57
2018-03-14T11:33:07.723Z,6.20
2018-03-14T11:35:35.307Z,6.27
2018-03-14T11:38:02.876Z,5.53
2018-03-14T11:40:30.470Z,5.47
2018-03-14T11:42:58.796Z,5.50
2018-03-14T11:45:27.135Z,7.63
2018-03-14T11:47:54.759Z,6.07
2018-03-14T11:50:23.302Z,5.50
2018-03-14T11:52:50.890Z,6.10
2018-03-14T11:55:18.491Z,5.40
2018-03-14T11:57:46.823Z,6.20
2018-03-14T12:00:14.391Z,6.17
2018-03-14T12:02:41.975Z,5.90
2018-03-14T12:05:10.344Z,5.60
2018-03-14T12:07:37.918Z,5.40
2018-03-14T12:10:06.324Z,5.70
2018-03-14T12:12:34.627Z,5.50
2018-03-14T12:15:02.232Z,5.93
2018-03-14T12:17:30.575Z,5.60
2018-03-14T12:19:58.137Z,5.10
2018-03-14T12:22:31.612Z,5.70
2018-03-14T12:24:59.179Z,5.43
2018-03-14T12:27:28.810Z,5.30
2018-03-14T12:29:56.437Z,5.50
2018-03-14T12:32:24.004Z,6.27
2018-03-14T12:34:51.608Z,6.17
2018-03-14T12:37:19.198Z,5.90
2018-03-14T12:39:46.758Z,5.70
2018-03-14T12:42:14.380Z,6.53
2018-03-14T12:44:41.996Z,6.13
2018-03-14T12:47:09.549Z,6.23
2018-03-14T12:49:37.119Z,6.07
2018-03-14T12:52:04.717Z,7.40
2018-03-14T12:54:32.275Z,6.47
2018-03-14T12:56:59.847Z,6.00
2018-03-14T12:59:27.444Z,5.57
2018-03-14T13:01:55.124Z,5.30
2018-03-14T13:04:22.720Z,6.60
2018-03-14T13:06:50.317Z,6.00
2018-03-14T13:09:18.671Z,5.53
2018-03-14T13:11:47.074Z,5.17
2018-03-14T13:14:14.668Z,5.40
2018-03-14T13:16:42.248Z,5.70
2018-03-14T13:19:09.854Z,5.97
2018-03-14T13:21:37.501Z,6.10
2018-03-14T13:24:05.974Z,5.63
2018-03-14T13:26:33.603Z,6.40
2018-03-14T13:29:01.203Z,7.27
2018-03-14T13:31:29.529Z,5.93
2018-03-14T13:33:57.147Z,6.47
2018-03-14T13:36:25.481Z,6.50
2018-03-14T13:38:53.056Z,6.57
2018-03-14T13:41:20.648Z,6.33
2018-03-14T13:43:48.990Z,6.13
2018-03-14T13:46:16.580Z,5.50
2018-03-14T13:48:44.927Z,6.93
2018-03-14T13:51:12.506Z,6.33
2018-03-14T13:53:40.097Z,5.83
2018-03-14T13:56:07.713Z,6.10
2018-03-14T13:58:35.332Z,5.60
2018-03-14T14:01:02.896Z,6.43
2018-03-14T14:03:30.490Z,5.77
2018-03-14T14:05:58.096Z,5.77
2018-03-14T14:08:25.690Z,5.47
2018-03-14T14:10:53.277Z,7.00
2018-03-14T14:13:20.872Z,6.87
2018-03-14T14:15:48.478Z,8.47
2018-03-14T14:18:16.062Z,7.00
2018-03-14T14:20:43.634Z,8.30
2018-03-14T14:23:12.666Z,5.93
2018-03-14T14:25:40.247Z,6.00
2018-03-14T14:28:07.826Z,6.00
2018-03-14T14:30:35.400Z,6.03
2018-03-14T14:33:03.980Z,6.67
2018-03-14T14:35:31.564Z,9.40
2018-03-14T14:37:59.904Z,6.17
2018-03-14T14:40:27.484Z,6.00
2018-03-14T14:42:55.066Z,9.60
2018-03-14T14:45:23.429Z,6.80
2018-03-14T14:47:51.764Z,5.40
2018-03-14T14:50:20.187Z,5.57
2018-03-14T14:52:47.747Z,6.10
2018-03-14T14:55:16.116Z,6.20
2018-03-14T14:57:43.711Z,6.00
2018-03-14T15:00:12.042Z,5.13
2018-03-14T15:02:39.656Z,4.90
2018-03-14T15:05:07.206Z,5.73
2018-03-14T15:07:34.769Z,6.80
2018-03-14T15:10:02.362Z,6.63
2018-03-14T15:12:29.951Z,6.20
2018-03-14T15:14:57.514Z,6.00
2018-03-14T15:17:26.670Z,6.90
2018-03-14T15:19:54.273Z,5.60
2018-03-14T15:22:21.832Z,5.53
2018-03-14T15:24:50.191Z,5.23
2018-03-14T15:27:17.755Z,5.47
2018-03-14T15:29:45.319Z,5.20
2018-03-14T15:32:12.903Z,5.60
2018-03-14T15:34:47.794Z,5.23
2018-03-14T15:37:15.365Z,5.93
2018-03-14T15:39:45.297Z,6.63
2018-03-14T15:42:13.126Z,6.40
2018-03-14T15:44:40.715Z,6.60
2018-03-14T15:47:08.284Z,6.27
2018-03-14T15:49:48.279Z,6.67
2018-03-14T15:52:27.088Z,6.00
2018-03-14T15:55:02.861Z,6.37
2018-03-14T15:57:30.524Z,6.63
2018-03-14T15:59:58.092Z,7.20
2018-03-14T16:02:25.693Z,6.33
2018-03-14T16:05:03.755Z,6.50
2018-03-14T16:07:33.311Z,7.80
2018-03-14T16:10:08.601Z,6.27
2018-03-14T16:12:44.866Z,7.47
2018-03-14T16:15:12.438Z,7.00
2018-03-14T16:17:40.111Z,7.30
2018-03-14T16:20:09.727Z,7.50
2018-03-14T16:22:40.449Z,6.00
2018-03-14T16:25:08.065Z,6.67
2018-03-14T16:27:35.646Z,6.47
2018-03-14T16:30:03.269Z,6.37
2018-03-14T16:32:31.638Z,7.00
2018-03-14T16:35:00.012Z,6.10
2018-03-14T16:37:27.584Z,7.17
2018-03-14T16:39:55.926Z,5.60
2018-03-14T16:42:27.198Z,6.00
2018-03-14T16:45:09.116Z,5.73
2018-03-14T16:47:40.624Z,5.10
2018-03-14T16:50:08.994Z,6.33
2018-03-14T16:52:44.071Z,8.30
2018-03-14T16:55:12.424Z,6.10
2018-03-14T16:57:40.024Z,5.90
2018-03-14T17:00:07.592Z,6.00
2018-03-14T17:02:35.180Z,4.97
2018-03-14T17:05:02.751Z,5.30
2018-03-14T17:07:30.372Z,7.27
2018-03-14T17:09:57.937Z,5.70
2018-03-14T17:12:25.496Z,6.40
2018-03-14T17:14:53.106Z,5.80
2018-03-14T17:17:20.680Z,5.63
2018-03-14T17:19:58.838Z,5.30
2018-03-14T17:22:31.932Z,6.03
2018-03-14T17:25:07.368Z,6.37
2018-03-14T17:27:34.945Z,4.90
2018-03-14T17:30:03.344Z,5.30
2018-03-14T17:32:30.928Z,5.40
2018-03-14T17:34:59.256Z,4.83
2018-03-14T17:37:26.843Z,5.50
2018-03-14T17:39:54.459Z,5.77
2018-03-14T17:42:22.091Z,5.83
2018-03-14T17:44:50.410Z,4.73
2018-03-14T17:47:17.964Z,4.53
2018-03-14T17:49:45.544Z,4.97
2018-03-14T17:52:13.103Z,4.20
2018-03-14T17:54:40.682Z,4.27
2018-03-14T17:57:09.825Z,7.00
2018-03-14T17:59:38.301Z,7.60
2018-03-14T18:02:05.917Z,5.60
2018-03-14T18:04:33.491Z,6.00
2018-03-14T18:07:02.030Z,5.80
2018-03-14T18:09:29.638Z,6.30
2018-03-14T18:12:03.649Z,6.50
2018-03-14T18:14:32.005Z,6.40
2018-03-14T18:16:59.606Z,6.43
2018-03-14T18:19:34.154Z,5.17
2018-03-14T18:22:01.716Z,5.20
2018-03-14T18:24:34.006Z,5.57
2018-03-14T18:27:01.601Z,5.77
2018-03-14T18:29:29.920Z,6.00
2018-03-14T18:31:57.521Z,5.73
2018-03-14T18:34:27.086Z,7.60
2018-03-14T18:36:54.700Z,6.10
2018-03-14T18:39:22.330Z,6.53
2018-03-14T18:41:50.702Z,6.70
2018-03-14T18:44:18.321Z,6.73
2018-03-14T18:46:46.673Z,7.57
2018-03-14T18:49:18.489Z,6.40
2018-03-14T18:51:46.093Z,6.60
2018-03-14T18:54:13.693Z,7.67
2018-03-14T18:56:41.873Z,9.00
2018-03-14T18:59:09.453Z,6.83
2018-03-14T19:01:37.088Z,7.70
2018-03-14T19:04:07.979Z,7.67
2018-03-14T19:06:35.530Z,8.13
2018-03-14T19:09:03.140Z,6.67
2018-03-14T19:11:30.734Z,8.17
2018-03-14T19:13:58.298Z,6.53
2018-03-14T19:16:25.883Z,9.07
2018-03-14T19:18:59.415Z,6.20
2018-03-14T19:21:31.453Z,6.77
2018-03-14T19:23:59.007Z,6.77
2018-03-14T19:26:26.606Z,6.97
2018-03-14T19:29:00.313Z,6.50
2018-03-14T19:31:27.899Z,6.23
2018-03-14T19:33:55.472Z,5.83
2018-03-14T19:36:28.825Z,7.17
2018-03-14T19:38:56.400Z,7.50
2018-03-14T19:41:23.992Z,7.77
2018-03-14T19:43:51.555Z,7.60
2018-03-14T19:46:19.914Z,7.40
2018-03-14T19:48:47.485Z,9.47
2018-03-14T19:51:15.106Z,11.10
2018-03-14T19:53:42.676Z,9.10
2018-03-14T19:56:10.244Z,7.20
2018-03-14T19:58:37.844Z,7.93
2018-03-14T20:01:05.497Z,8.60
2018-03-14T20:03:33.083Z,8.00
2018-03-14T20:06:07.132Z,6.80
2018-03-14T20:08:34.727Z,9.33
2018-03-14T20:11:02.320Z,7.40
2018-03-14T20:13:30.644Z,8.00
2018-03-14T20:15:58.219Z,6.93
2018-03-14T20:18:25.814Z,7.57
2018-03-14T20:20:54.227Z,7.53
2018-03-14T20:23:36.219Z,7.50
2018-03-14T20:26:03.779Z,8.53
2018-03-14T20:28:33.306Z,7.53
2018-03-14T20:31:00.924Z,8.77
2018-03-14T20:33:28.513Z,10.20
2018-03-14T20:35:56.101Z,7.30
2018-03-14T20:38:24.662Z,8.53
2018-03-14T20:40:52.221Z,9.10
2018-03-14T20:43:20.736Z,8.53
2018-03-14T20:45:48.314Z,7.57
2018-03-14T20:48:15.911Z,8.43
2018-03-14T20:50:43.519Z,9.27
2018-03-14T20:53:12.077Z,8.97
2018-03-14T20:55:39.692Z,8.37
2018-03-14T20:58:09.022Z,9.00
2018-03-14T21:00:36.604Z,10.60
2018-03-14T21:03:04.199Z,10.10
2018-03-14T21:05:31.798Z,12.67
2018-03-14T21:07:59.356Z,9.60
2018-03-14T21:10:26.980Z,8.60
2018-03-14T21:12:54.552Z,9.70
2018-03-14T21:15:22.885Z,10.23
2018-03-14T21:17:50.553Z,9.80
2018-03-14T21:20:18.134Z,8.67
2018-03-14T21:22:45.750Z,10.70
2018-03-14T21:25:13.384Z,9.20
2018-03-14T21:27:41.718Z,9.97
2018-03-14T21:30:09.328Z,10.57
2018-03-14T21:32:36.901Z,9.87
2018-03-14T21:35:04.470Z,10.90
2018-03-14T21:37:32.101Z,10.13
2018-03-14T21:39:59.669Z,12.57
2018-03-14T21:42:27.239Z,10.60
2018-03-14T21:44:54.852Z,11.30
2018-03-14T21:47:22.418Z,10.43
2018-03-14T21:49:52.041Z,13.80
2018-03-14T21:52:20.369Z,13.00
2018-03-14T21:54:48.659Z,17.07
2018-03-14T21:57:18.293Z,13.20
2018-03-14T21:59:46.644Z,11.30
2018-03-14T22:02:14.204Z,10.80
2018-03-14T22:04:42.606Z,13.13
2018-03-14T22:07:10.191Z,24.77
2018-03-14T22:09:37.753Z,11.90
2018-03-14T22:12:05.374Z,15.07
2018-03-14T22:14:32.960Z,15.03
2018-03-14T22:17:01.333Z,13.40
2018-03-14T22:19:29.675Z,11.13
2018-03-14T22:21:57.259Z,11.10
2018-03-14T22:24:24.859Z,12.30
2018-03-14T22:26:58.168Z,11.83
2018-03-14T22:29:25.820Z,10.43
2018-03-14T22:31:53.385Z,13.67
2018-03-14T22:34:20.960Z,12.70
2018-03-14T22:36:48.580Z,14.13
2018-03-14T22:39:16.961Z,14.80
2018-03-14T22:41:45.277Z,12.03
2018-03-14T22:44:16.700Z,10.60
2018-03-14T22:46:44.274Z,10.27
2018-03-14T22:49:11.838Z,13.30
2018-03-14T22:51:39.430Z,12.37
2018-03-14T22:54:06.991Z,10.77
2018-03-14T22:56:34.620Z,10.00
2018-03-14T22:59:02.219Z,10.27
2018-03-14T23:01:30.549Z,12.80
2018-03-14T23:03:58.161Z,11.30
2018-03-14T23:06:25.722Z,9.83
2018-03-14T23:08:54.062Z,9.40
2018-03-14T23:11:21.651Z,10.10
2018-03-14T23:13:49.218Z,10.60
2018-03-14T23:16:16.786Z,10.17
2018-03-14T23:18:44.378Z,10.70
2018-03-14T23:21:11.959Z,12.13
2018-03-14T23:23:39.575Z,10.53
2018-03-14T23:26:07.214Z,10.73
2018-03-14T23:28:38.421Z,12.00
2018-03-14T23:31:06.014Z,11.90
2018-03-14T23:33:33.580Z,14.40
2018-03-14T23:36:01.170Z,13.30
2018-03-14T23:38:29.532Z,12.70
2018-03-14T23:41:05.221Z,13.90
2018-03-14T23:43:32.787Z,13.63
2018-03-14T23:46:00.360Z,13.93
2018-03-14T23:48:27.967Z,14.83
2018-03-14T23:50:56.451Z,15.37
2018-03-14T23:53:24.786Z,14.50
2018-03-14T23:55:57.067Z,13.97
2018-03-14T23:58:24.676Z,16.47
